sensor_id;sensor_type;location;lat;lon;timestamp;pressure;altitude;pressure_sealevel;temperature;humidity
47883;BME280;37739;50.350;7.578;2023-05-08T00:00:44;100090.22;;;15.86;96.38
47883;BME280;37739;50.350;7.578;2023-05-08T00:03:15;100091.78;;;15.80;96.26
47883;BME280;37739;50.350;7.578;2023-05-08T00:05:40;100091.78;;;15.80;95.58
47883;BME280;37739;50.350;7.578;2023-05-08T00:08:08;100091.75;;;15.77;95.31
47883;BME280;37739;50.350;7.578;2023-05-08T00:10:36;100092.53;;;15.74;95.08
47883;BME280;37739;50.350;7.578;2023-05-08T00:13:03;100091.28;;;15.57;94.13
47883;BME280;37739;50.350;7.578;2023-05-08T00:15:31;100095.53;;;15.55;94.38
47883;BME280;37739;50.350;7.578;2023-05-08T00:17:56;100094.06;;;15.66;95.14
47883;BME280;37739;50.350;7.578;2023-05-08T00:20:24;100093.47;;;15.78;93.96
47883;BME280;37739;50.350;7.578;2023-05-08T00:22:50;100097.66;;;15.73;92.53
47883;BME280;37739;50.350;7.578;2023-05-08T00:25:19;100097.63;;;15.71;93.05
47883;BME280;37739;50.350;7.578;2023-05-08T00:27:45;100089.91;;;15.73;93.39
47883;BME280;37739;50.350;7.578;2023-05-08T00:30:10;100094.28;;;15.75;92.79
47883;BME280;37739;50.350;7.578;2023-05-08T00:32:39;100102.00;;;15.74;92.54
47883;BME280;37739;50.350;7.578;2023-05-08T00:35:04;100101.91;;;15.69;92.79
47883;BME280;37739;50.350;7.578;2023-05-08T00:37:30;100102.72;;;15.68;92.79
47883;BME280;37739;50.350;7.578;2023-05-08T00:39:55;100100.06;;;15.63;92.83
47883;BME280;37739;50.350;7.578;2023-05-08T00:42:23;100099.03;;;15.57;92.67
47883;BME280;37739;50.350;7.578;2023-05-08T00:44:50;100110.22;;;15.56;92.10
47883;BME280;37739;50.350;7.578;2023-05-08T00:47:17;100108.56;;;15.58;91.96
47883;BME280;37739;50.350;7.578;2023-05-08T00:49:47;100111.00;;;15.51;91.87
47883;BME280;37739;50.350;7.578;2023-05-08T00:52:12;100118.69;;;15.48;92.14
47883;BME280;37739;50.350;7.578;2023-05-08T00:54:40;100115.88;;;15.39;91.88
47883;BME280;37739;50.350;7.578;2023-05-08T00:57:06;100127.59;;;15.23;92.05
47883;BME280;37739;50.350;7.578;2023-05-08T00:59:32;100124.06;;;15.20;93.44
47883;BME280;37739;50.350;7.578;2023-05-08T01:01:59;100122.56;;;15.29;93.04
47883;BME280;37739;50.350;7.578;2023-05-08T01:04:27;100126.06;;;15.31;92.40
47883;BME280;37739;50.350;7.578;2023-05-08T01:06:56;100122.66;;;15.32;93.36
47883;BME280;37739;50.350;7.578;2023-05-08T01:09:22;100132.13;;;15.32;93.11
47883;BME280;37739;50.350;7.578;2023-05-08T01:15:15;100132.44;;;15.09;92.96
47883;BME280;37739;50.350;7.578;2023-05-08T01:18:11;100128.94;;;15.07;92.50
47883;BME280;37739;50.350;7.578;2023-05-08T01:20:45;100141.88;;;15.07;93.70
47883;BME280;37739;50.350;7.578;2023-05-08T01:31:58;100142.28;;;15.24;92.16
47883;BME280;37739;50.350;7.578;2023-05-08T01:34:30;100135.13;;;15.14;92.36
47883;BME280;37739;50.350;7.578;2023-05-08T01:37:10;100136.72;;;15.07;93.05
47883;BME280;37739;50.350;7.578;2023-05-08T01:39:46;100136.84;;;15.14;92.42
47883;BME280;37739;50.350;7.578;2023-05-08T01:45:00;100134.25;;;15.14;92.54
47883;BME280;37739;50.350;7.578;2023-05-08T01:47:32;100138.56;;;15.13;92.19
47883;BME280;37739;50.350;7.578;2023-05-08T01:50:10;100141.09;;;15.11;92.04
47883;BME280;37739;50.350;7.578;2023-05-08T01:52:47;100140.28;;;15.14;92.41
47883;BME280;37739;50.350;7.578;2023-05-08T01:55:25;100143.59;;;15.08;92.09
47883;BME280;37739;50.350;7.578;2023-05-08T01:57:53;100143.59;;;15.08;92.28
47883;BME280;37739;50.350;7.578;2023-05-08T02:00:22;100142.78;;;15.09;92.26
47883;BME280;37739;50.350;7.578;2023-05-08T02:02:53;100145.38;;;15.09;92.39
47883;BME280;37739;50.350;7.578;2023-05-08T02:05:23;100151.34;;;15.07;92.12
47883;BME280;37739;50.350;7.578;2023-05-08T02:07:50;100153.84;;;15.04;92.49
47883;BME280;37739;50.350;7.578;2023-05-08T02:10:17;100153.75;;;15.01;92.69
47883;BME280;37739;50.350;7.578;2023-05-08T02:12:47;100152.88;;;15.00;92.15
47883;BME280;37739;50.350;7.578;2023-05-08T02:15:15;100161.53;;;15.02;92.15
47883;BME280;37739;50.350;7.578;2023-05-08T02:17:42;100161.50;;;14.99;92.99
47883;BME280;37739;50.350;7.578;2023-05-08T02:20:11;100161.28;;;14.91;93.40
47883;BME280;37739;50.350;7.578;2023-05-08T02:22:44;100167.25;;;14.89;93.23
47883;BME280;37739;50.350;7.578;2023-05-08T02:25:16;100163.69;;;14.85;93.72
47883;BME280;37739;50.350;7.578;2023-05-08T02:27:48;100162.13;;;14.90;93.68
47883;BME280;37739;50.350;7.578;2023-05-08T02:30:15;100162.13;;;14.90;93.67
47883;BME280;37739;50.350;7.578;2023-05-08T02:32:46;100162.06;;;14.89;93.17
47883;BME280;37739;50.350;7.578;2023-05-08T02:35:19;100167.69;;;14.72;92.68
47883;BME280;37739;50.350;7.578;2023-05-08T02:37:49;100163.16;;;14.64;93.85
47883;BME280;37739;50.350;7.578;2023-05-08T02:40:16;100163.97;;;14.61;93.64
47883;BME280;37739;50.350;7.578;2023-05-08T02:42:43;100176.91;;;14.63;93.28
47883;BME280;37739;50.350;7.578;2023-05-08T02:45:09;100173.41;;;14.61;93.69
47883;BME280;37739;50.350;7.578;2023-05-08T02:50:30;100180.63;;;14.72;92.96
47883;BME280;37739;50.350;7.578;2023-05-08T02:53:03;100177.13;;;14.70;92.89
47883;BME280;37739;50.350;7.578;2023-05-08T02:55:38;100177.81;;;14.65;93.10
47883;BME280;37739;50.350;7.578;2023-05-08T02:58:34;100174.53;;;14.70;92.95
47883;BME280;37739;50.350;7.578;2023-05-08T03:01:06;100177.88;;;14.68;92.71
47883;BME280;37739;50.350;7.578;2023-05-08T03:03:44;100176.94;;;14.64;92.41
47883;BME280;37739;50.350;7.578;2023-05-08T03:06:15;100176.00;;;14.61;92.65
47883;BME280;37739;50.350;7.578;2023-05-08T03:08:45;100174.41;;;14.66;92.53
47883;BME280;37739;50.350;7.578;2023-05-08T03:11:18;100182.13;;;14.66;92.32
47883;BME280;37739;50.350;7.578;2023-05-08T03:13:49;100181.28;;;14.65;92.08
47883;BME280;37739;50.350;7.578;2023-05-08T03:16:23;100179.50;;;14.63;91.52
47883;BME280;37739;50.350;7.578;2023-05-08T03:18:54;100182.91;;;14.62;91.51
47883;BME280;37739;50.350;7.578;2023-05-08T03:21:24;100179.34;;;14.58;91.79
47883;BME280;37739;50.350;7.578;2023-05-08T03:23:56;100184.56;;;14.60;91.84
47883;BME280;37739;50.350;7.578;2023-05-08T03:26:22;100180.22;;;14.59;91.62
47883;BME280;37739;50.350;7.578;2023-05-08T03:28:53;100186.91;;;14.52;91.75
47883;BME280;37739;50.350;7.578;2023-05-08T03:31:25;100186.09;;;14.53;92.08
47883;BME280;37739;50.350;7.578;2023-05-08T03:33:53;100191.31;;;14.56;91.78
47883;BME280;37739;50.350;7.578;2023-05-08T03:36:20;100191.28;;;14.54;91.74
47883;BME280;37739;50.350;7.578;2023-05-08T03:38:47;100186.91;;;14.52;91.41
47883;BME280;37739;50.350;7.578;2023-05-08T03:41:15;100187.72;;;14.49;91.91
47883;BME280;37739;50.350;7.578;2023-05-08T03:43:46;100190.28;;;14.49;92.02
47883;BME280;37739;50.350;7.578;2023-05-08T03:46:12;100185.94;;;14.48;92.27
47883;BME280;37739;50.350;7.578;2023-05-08T03:48:38;100185.16;;;14.51;92.25
47883;BME280;37739;50.350;7.578;2023-05-08T03:51:07;100194.53;;;14.47;92.35
47883;BME280;37739;50.350;7.578;2023-05-08T03:53:33;100190.25;;;14.48;92.13
47883;BME280;37739;50.350;7.578;2023-05-08T03:56:01;100189.38;;;14.47;92.14
47883;BME280;37739;50.350;7.578;2023-05-08T03:58:37;100183.25;;;14.44;92.60
47883;BME280;37739;50.350;7.578;2023-05-08T04:01:17;100184.97;;;14.45;92.41
47883;BME280;37739;50.350;7.578;2023-05-08T04:09:27;100186.59;;;14.41;91.98
47883;BME280;37739;50.350;7.578;2023-05-08T04:11:59;100192.66;;;14.42;91.87
47883;BME280;37739;50.350;7.578;2023-05-08T04:14:30;100197.69;;;14.37;91.86
47883;BME280;37739;50.350;7.578;2023-05-08T04:17:07;100193.31;;;14.34;92.01
47883;BME280;37739;50.350;7.578;2023-05-08T04:19:37;100195.03;;;14.36;92.15
47883;BME280;37739;50.350;7.578;2023-05-08T04:22:09;100194.19;;;14.35;92.38
47883;BME280;37739;50.350;7.578;2023-05-08T04:24:42;100190.69;;;14.33;92.24
47883;BME280;37739;50.350;7.578;2023-05-08T04:27:11;100194.13;;;14.32;92.26
47883;BME280;37739;50.350;7.578;2023-05-08T04:29:37;100187.09;;;14.28;92.42
47883;BME280;37739;50.350;7.578;2023-05-08T04:32:04;100196.50;;;14.26;92.11
47883;BME280;37739;50.350;7.578;2023-05-08T04:34:33;100199.13;;;14.27;91.97
47883;BME280;37739;50.350;7.578;2023-05-08T04:36:58;100203.41;;;14.27;91.46
47883;BME280;37739;50.350;7.578;2023-05-08T04:39:26;100201.75;;;14.29;91.70
47883;BME280;37739;50.350;7.578;2023-05-08T04:41:56;100201.75;;;14.29;91.83
47883;BME280;37739;50.350;7.578;2023-05-08T04:44:29;100200.88;;;14.28;91.82
47883;BME280;37739;50.350;7.578;2023-05-08T04:46:54;100209.38;;;14.24;92.14
47883;BME280;37739;50.350;7.578;2023-05-08T04:49:20;100205.09;;;14.25;92.25
47883;BME280;37739;50.350;7.578;2023-05-08T04:51:46;100210.91;;;14.18;92.49
47883;BME280;37739;50.350;7.578;2023-05-08T04:54:13;100210.53;;;14.05;92.88
47883;BME280;37739;50.350;7.578;2023-05-08T04:56:41;100217.91;;;13.93;94.04
47883;BME280;37739;50.350;7.578;2023-05-08T04:59:09;100219.78;;;13.70;93.61
47883;BME280;37739;50.350;7.578;2023-05-08T05:01:35;100226.03;;;13.77;93.68
47883;BME280;37739;50.350;7.578;2023-05-08T05:04:00;100225.84;;;13.70;94.44
47883;BME280;37739;50.350;7.578;2023-05-08T05:06:26;100224.06;;;13.69;94.63
47883;BME280;37739;50.350;7.578;2023-05-08T05:08:51;100229.66;;;13.83;94.40
47883;BME280;37739;50.350;7.578;2023-05-08T05:11:16;100230.78;;;13.93;93.85
47883;BME280;37739;50.350;7.578;2023-05-08T05:13:42;100226.78;;;14.01;93.27
47883;BME280;37739;50.350;7.578;2023-05-08T05:16:12;100227.00;;;14.09;92.66
47883;BME280;37739;50.350;7.578;2023-05-08T05:18:39;100228.69;;;14.08;92.20
47883;BME280;37739;50.350;7.578;2023-05-08T05:21:09;100236.53;;;14.11;91.86
47883;BME280;37739;50.350;7.578;2023-05-08T05:23:35;100232.28;;;14.13;91.25
47883;BME280;37739;50.350;7.578;2023-05-08T05:26:03;100238.31;;;14.14;91.19
47883;BME280;37739;50.350;7.578;2023-05-08T05:28:28;100238.69;;;13.98;92.40
47883;BME280;37739;50.350;7.578;2023-05-08T05:30:54;100244.09;;;14.05;91.93
47883;BME280;37739;50.350;7.578;2023-05-08T05:33:19;100250.81;;;14.00;91.32
47883;BME280;37739;50.350;7.578;2023-05-08T05:35:47;100243.97;;;14.02;92.30
47883;BME280;37739;50.350;7.578;2023-05-08T05:38:13;100244.09;;;14.05;91.47
47883;BME280;37739;50.350;7.578;2023-05-08T05:40:38;100243.25;;;14.06;91.22
47883;BME280;37739;50.350;7.578;2023-05-08T05:43:05;100249.38;;;14.10;92.02
47883;BME280;37739;50.350;7.578;2023-05-08T05:45:35;100253.03;;;14.18;91.68
47883;BME280;37739;50.350;7.578;2023-05-08T05:48:03;100251.38;;;14.20;91.50
47883;BME280;37739;50.350;7.578;2023-05-08T05:50:33;100244.59;;;14.22;91.74
47883;BME280;37739;50.350;7.578;2023-05-08T05:52:59;100255.84;;;14.24;92.14
47883;BME280;37739;50.350;7.578;2023-05-08T05:55:24;100254.13;;;14.25;91.79
47883;BME280;37739;50.350;7.578;2023-05-08T05:57:52;100254.06;;;14.23;91.83
47883;BME280;37739;50.350;7.578;2023-05-08T06:00:20;100250.75;;;14.27;92.00
47883;BME280;37739;50.350;7.578;2023-05-08T06:02:45;100253.41;;;14.30;91.51
47883;BME280;37739;50.350;7.578;2023-05-08T06:05:13;100248.91;;;14.23;92.37
47883;BME280;37739;50.350;7.578;2023-05-08T06:07:39;100257.66;;;14.28;92.48
47883;BME280;37739;50.350;7.578;2023-05-08T06:10:05;100251.53;;;14.25;92.61
47883;BME280;37739;50.350;7.578;2023-05-08T06:12:31;100249.06;;;14.29;92.17
47883;BME280;37739;50.350;7.578;2023-05-08T06:14:56;100244.88;;;14.33;92.45
47883;BME280;37739;50.350;7.578;2023-05-08T06:17:24;100250.16;;;14.36;92.51
47883;BME280;37739;50.350;7.578;2023-05-08T06:19:54;100244.97;;;14.36;92.81
47883;BME280;37739;50.350;7.578;2023-05-08T06:22:22;100245.50;;;14.24;93.00
47883;BME280;37739;50.350;7.578;2023-05-08T06:24:49;100254.28;;;14.31;93.61
47883;BME280;37739;50.350;7.578;2023-05-08T06:27:18;100249.94;;;14.28;92.81
47883;BME280;37739;50.350;7.578;2023-05-08T06:29:46;100254.69;;;14.45;91.81
47883;BME280;37739;50.350;7.578;2023-05-08T06:32:11;100250.44;;;14.47;90.41
47883;BME280;37739;50.350;7.578;2023-05-08T06:34:37;100253.16;;;14.51;90.34
47883;BME280;37739;50.350;7.578;2023-05-08T06:37:05;100250.66;;;14.54;90.63
47883;BME280;37739;50.350;7.578;2023-05-08T06:39:30;100257.69;;;14.59;90.33
47883;BME280;37739;50.350;7.578;2023-05-08T06:41:56;100251.69;;;14.60;89.69
47883;BME280;37739;50.350;7.578;2023-05-08T06:44:23;100255.34;;;14.68;89.27
47883;BME280;37739;50.350;7.578;2023-05-08T06:46:49;100259.88;;;14.75;89.45
47883;BME280;37739;50.350;7.578;2023-05-08T06:49:18;100258.09;;;14.72;89.21
47883;BME280;37739;50.350;7.578;2023-05-08T06:51:49;100263.81;;;14.62;89.27
47883;BME280;37739;50.350;7.578;2023-05-08T06:54:14;100262.06;;;14.61;88.76
47883;BME280;37739;50.350;7.578;2023-05-08T06:56:40;100271.44;;;14.58;89.09
47883;BME280;37739;50.350;7.578;2023-05-08T06:59:05;100268.97;;;14.61;89.01
47883;BME280;37739;50.350;7.578;2023-05-08T07:01:30;100266.53;;;14.67;89.43
47883;BME280;37739;50.350;7.578;2023-05-08T07:03:56;100270.78;;;14.65;88.00
47883;BME280;37739;50.350;7.578;2023-05-08T07:06:23;100268.06;;;14.60;87.84
47883;BME280;37739;50.350;7.578;2023-05-08T07:08:51;100273.22;;;14.60;88.49
47883;BME280;37739;50.350;7.578;2023-05-08T07:11:16;100273.16;;;14.59;88.74
47883;BME280;37739;50.350;7.578;2023-05-08T07:13:46;100273.88;;;14.53;88.99
47883;BME280;37739;50.350;7.578;2023-05-08T07:16:13;100276.59;;;14.58;88.95
47883;BME280;37739;50.350;7.578;2023-05-08T07:18:38;100280.22;;;14.64;89.25
47883;BME280;37739;50.350;7.578;2023-05-08T07:21:04;100276.72;;;14.62;89.01
47883;BME280;37739;50.350;7.578;2023-05-08T07:23:32;100272.59;;;14.39;90.40
47883;BME280;37739;50.350;7.578;2023-05-08T07:25:57;100270.34;;;14.51;89.73
47883;BME280;37739;50.350;7.578;2023-05-08T07:28:25;100278.66;;;14.41;90.21
47883;BME280;37739;50.350;7.578;2023-05-08T07:30:51;100270.31;;;14.49;90.40
47883;BME280;37739;50.350;7.578;2023-05-08T07:33:18;100276.47;;;14.54;89.84
47883;BME280;37739;50.350;7.578;2023-05-08T07:35:44;100275.75;;;14.59;89.72
47883;BME280;37739;50.350;7.578;2023-05-08T07:38:12;100274.06;;;14.59;89.30
47883;BME280;37739;50.350;7.578;2023-05-08T07:40:39;100270.34;;;14.51;89.69
47883;BME280;37739;50.350;7.578;2023-05-08T07:43:05;100273.88;;;14.53;90.32
47883;BME280;37739;50.350;7.578;2023-05-08T07:45:34;100282.94;;;14.40;91.04
47883;BME280;37739;50.350;7.578;2023-05-08T07:48:01;100279.75;;;14.49;90.23
47883;BME280;37739;50.350;7.578;2023-05-08T07:50:31;100283.69;;;14.36;90.08
47883;BME280;37739;50.350;7.578;2023-05-08T07:53:01;100281.66;;;14.26;90.81
47883;BME280;37739;50.350;7.578;2023-05-08T07:55:29;100284.34;;;14.29;91.38
47883;BME280;37739;50.350;7.578;2023-05-08T07:57:56;100280.28;;;14.37;90.66
47883;BME280;37739;50.350;7.578;2023-05-08T08:00:22;100285.59;;;14.42;90.11
47883;BME280;37739;50.350;7.578;2023-05-08T08:02:48;100285.75;;;14.48;90.21
47883;BME280;37739;50.350;7.578;2023-05-08T08:05:13;100281.63;;;14.53;89.92
47883;BME280;37739;50.350;7.578;2023-05-08T08:07:38;100279.91;;;14.53;89.65
47883;BME280;37739;50.350;7.578;2023-05-08T08:10:06;100293.81;;;14.57;89.65
47883;BME280;37739;50.350;7.578;2023-05-08T08:12:32;100287.91;;;14.61;89.23
47883;BME280;37739;50.350;7.578;2023-05-08T08:14:57;100288.88;;;14.65;88.74
47883;BME280;37739;50.350;7.578;2023-05-08T08:17:25;100283.69;;;14.65;88.81
47883;BME280;37739;50.350;7.578;2023-05-08T08:19:53;100291.47;;;14.66;89.27
47883;BME280;37739;50.350;7.578;2023-05-08T08:22:21;100292.44;;;14.70;89.67
47883;BME280;37739;50.350;7.578;2023-05-08T08:24:49;100295.97;;;14.73;88.51
47883;BME280;37739;50.350;7.578;2023-05-08T08:27:19;100292.44;;;14.70;88.72
47883;BME280;37739;50.350;7.578;2023-05-08T08:29:44;100293.31;;;14.70;89.46
47883;BME280;37739;50.350;7.578;2023-05-08T08:32:10;100292.41;;;14.68;89.70
47883;BME280;37739;50.350;7.578;2023-05-08T08:34:35;100283.06;;;14.73;89.68
47883;BME280;37739;50.350;7.578;2023-05-08T08:37:00;100293.56;;;14.80;89.79
47883;BME280;37739;50.350;7.578;2023-05-08T08:39:26;100286.66;;;14.79;89.72
47883;BME280;37739;50.350;7.578;2023-05-08T08:41:51;100281.50;;;14.79;89.85
47883;BME280;37739;50.350;7.578;2023-05-08T08:44:21;100291.16;;;14.86;89.93
47883;BME280;37739;50.350;7.578;2023-05-08T08:46:50;100281.75;;;14.89;88.44
47883;BME280;37739;50.350;7.578;2023-05-08T08:49:18;100285.28;;;14.91;88.19
47883;BME280;37739;50.350;7.578;2023-05-08T08:51:58;100287.94;;;14.95;89.16
47883;BME280;37739;50.350;7.578;2023-05-08T08:54:27;100283.94;;;15.06;89.05
47883;BME280;37739;50.350;7.578;2023-05-08T08:56:54;100284.06;;;15.10;87.67
47883;BME280;37739;50.350;7.578;2023-05-08T08:59:24;100278.97;;;15.14;87.38
47883;BME280;37739;50.350;7.578;2023-05-08T09:01:55;100285.72;;;15.08;88.04
47883;BME280;37739;50.350;7.578;2023-05-08T09:04:20;100285.16;;;15.20;88.09
47883;BME280;37739;50.350;7.578;2023-05-08T09:06:48;100292.19;;;15.26;86.69
47883;BME280;37739;50.350;7.578;2023-05-08T09:09:13;100289.63;;;15.26;86.24
47883;BME280;37739;50.350;7.578;2023-05-08T09:11:42;100289.59;;;15.24;86.29
47883;BME280;37739;50.350;7.578;2023-05-08T09:14:10;100296.50;;;15.25;86.22
47883;BME280;37739;50.350;7.578;2023-05-08T09:16:35;100290.56;;;15.29;85.93
47883;BME280;37739;50.350;7.578;2023-05-08T09:19:01;100293.44;;;15.40;85.96
47883;BME280;37739;50.350;7.578;2023-05-08T09:21:33;100293.31;;;15.36;85.24
47883;BME280;37739;50.350;7.578;2023-05-08T09:24:02;100293.50;;;15.43;86.03
47883;BME280;37739;50.350;7.578;2023-05-08T09:26:33;100286.88;;;15.53;85.75
47883;BME280;37739;50.350;7.578;2023-05-08T09:29:21;100295.56;;;15.57;84.07
47883;BME280;37739;50.350;7.578;2023-05-08T09:31:48;100287.97;;;15.63;84.96
47883;BME280;37739;50.350;7.578;2023-05-08T09:37:10;100297.66;;;15.71;84.26
47883;BME280;37739;50.350;7.578;2023-05-08T09:39:36;100291.97;;;15.85;84.45
47883;BME280;37739;50.350;7.578;2023-05-08T09:42:06;100289.34;;;15.83;82.06
47883;BME280;37739;50.350;7.578;2023-05-08T09:44:50;100300.59;;;15.85;83.77
47883;BME280;37739;50.350;7.578;2023-05-08T09:47:17;100304.44;;;16.01;83.63
47883;BME280;37739;50.350;7.578;2023-05-08T09:50:00;100303.63;;;16.04;82.23
47883;BME280;37739;50.350;7.578;2023-05-08T09:52:29;100302.81;;;16.06;83.09
47883;BME280;37739;50.350;7.578;2023-05-08T09:55:01;100306.97;;;16.00;83.68
47883;BME280;37739;50.350;7.578;2023-05-08T09:57:29;100302.81;;;16.06;83.63
47883;BME280;37739;50.350;7.578;2023-05-08T10:00:07;100302.38;;;16.26;83.98
47883;BME280;37739;50.350;7.578;2023-05-08T10:02:35;100300.34;;;16.52;82.85
47883;BME280;37739;50.350;7.578;2023-05-08T10:05:02;100299.88;;;16.72;81.89
47883;BME280;37739;50.350;7.578;2023-05-08T10:07:33;100294.97;;;16.84;81.51
47883;BME280;37739;50.350;7.578;2023-05-08T10:10:05;100298.72;;;16.98;81.35
47883;BME280;37739;50.350;7.578;2023-05-08T10:12:35;100290.78;;;16.91;80.21
47883;BME280;37739;50.350;7.578;2023-05-08T10:15:02;100297.09;;;17.03;80.85
47883;BME280;37739;50.350;7.578;2023-05-08T10:17:52;100301.25;;;16.97;77.79
47883;BME280;37739;50.350;7.578;2023-05-08T10:20:22;100304.06;;;17.07;80.36
47883;BME280;37739;50.350;7.578;2023-05-08T10:22:50;100304.88;;;17.54;78.78
47883;BME280;37739;50.350;7.578;2023-05-08T10:25:18;100293.38;;;17.91;77.53
47883;BME280;37739;50.350;7.578;2023-05-08T10:30:24;100287.72;;;18.18;76.83
47883;BME280;37739;50.350;7.578;2023-05-08T10:32:53;100298.47;;;17.85;78.74
47883;BME280;37739;50.350;7.578;2023-05-08T10:35:25;100288.25;;;17.94;77.69
47883;BME280;37739;50.350;7.578;2023-05-08T10:37:52;100284.31;;;18.21;75.69
47883;BME280;37739;50.350;7.578;2023-05-08T10:40:24;100287.09;;;18.38;74.96
47883;BME280;37739;50.350;7.578;2023-05-08T10:42:52;100293.31;;;18.48;75.14
47883;BME280;37739;50.350;7.578;2023-05-08T10:45:18;100284.69;;;18.50;75.36
47883;BME280;37739;50.350;7.578;2023-05-08T10:53:19;100283.84;;;17.89;75.43
47883;BME280;37739;50.350;7.578;2023-05-08T10:55:49;100284.28;;;18.19;75.21
47883;BME280;37739;50.350;7.578;2023-05-08T11:03:25;100285.31;;;18.34;72.34
47883;BME280;37739;50.350;7.578;2023-05-08T11:05:56;100279.91;;;18.17;73.47
47883;BME280;37739;50.350;7.578;2023-05-08T11:08:26;100281.63;;;18.16;73.70
47883;BME280;37739;50.350;7.578;2023-05-08T11:13:27;100281.81;;;17.72;75.21
47883;BME280;37739;50.350;7.578;2023-05-08T11:15:56;100278.13;;;17.58;76.26
47883;BME280;37739;50.350;7.578;2023-05-08T11:18:24;100280.00;;;17.66;76.11
47883;BME280;37739;50.350;7.578;2023-05-08T11:21:02;100273.91;;;17.64;75.23
47883;BME280;37739;50.350;7.578;2023-05-08T11:23:34;100273.06;;;17.65;75.41
47883;BME280;37739;50.350;7.578;2023-05-08T11:28:56;100268.03;;;17.75;73.87
47883;BME280;37739;50.350;7.578;2023-05-08T11:31:24;100266.56;;;17.91;74.53
47883;BME280;37739;50.350;7.578;2023-05-08T11:37:09;100264.66;;;17.80;74.66
47883;BME280;37739;50.350;7.578;2023-05-08T11:39:37;100265.56;;;17.84;75.08
47883;BME280;37739;50.350;7.578;2023-05-08T11:45:17;100264.94;;;17.45;78.60
47883;BME280;37739;50.350;7.578;2023-05-08T11:47:46;100277.25;;;17.56;77.60
47883;BME280;37739;50.350;7.578;2023-05-08T11:50:16;100264.38;;;17.63;77.48
47883;BME280;37739;50.350;7.578;2023-05-08T11:52:41;100266.25;;;17.72;76.87
47883;BME280;37739;50.350;7.578;2023-05-08T11:55:08;100261.81;;;17.66;77.58
47883;BME280;37739;50.350;7.578;2023-05-08T11:57:37;100267.78;;;17.61;78.04
47883;BME280;37739;50.350;7.578;2023-05-08T12:00:06;100267.00;;;17.65;77.96
47883;BME280;37739;50.350;7.578;2023-05-08T12:02:39;100267.13;;;17.73;76.99
47883;BME280;37739;50.350;7.578;2023-05-08T12:05:06;100258.72;;;17.86;76.70
47883;BME280;37739;50.350;7.578;2023-05-08T12:07:31;100262.22;;;17.91;75.58
47883;BME280;37739;50.350;7.578;2023-05-08T12:10:00;100260.50;;;17.92;76.12
47883;BME280;37739;50.350;7.578;2023-05-08T12:12:42;100256.91;;;17.83;76.63
47883;BME280;37739;50.350;7.578;2023-05-08T12:15:09;100257.56;;;17.70;76.82
47883;BME280;37739;50.350;7.578;2023-05-08T12:17:37;100265.31;;;17.69;77.39
47883;BME280;37739;50.350;7.578;2023-05-08T12:20:15;100259.88;;;17.52;77.91
47883;BME280;37739;50.350;7.578;2023-05-08T12:22:48;100258.22;;;17.57;77.79
47883;BME280;37739;50.350;7.578;2023-05-08T12:25:15;100254.75;;;17.56;78.59
47883;BME280;37739;50.350;7.578;2023-05-08T12:27:42;100250.41;;;17.54;78.72
47883;BME280;37739;50.350;7.578;2023-05-08T12:30:09;100245.56;;;17.77;78.81
47883;BME280;37739;50.350;7.578;2023-05-08T12:32:39;100241.66;;;18.05;77.69
47883;BME280;37739;50.350;7.578;2023-05-08T12:35:11;100241.84;;;18.20;75.32
47883;BME280;37739;50.350;7.578;2023-05-08T12:37:37;100237.66;;;18.30;76.49
47883;BME280;37739;50.350;7.578;2023-05-08T12:40:06;100238.84;;;18.55;74.46
47883;BME280;37739;50.350;7.578;2023-05-08T12:42:47;100234.16;;;19.03;72.82
47883;BME280;37739;50.350;7.578;2023-05-08T12:47:48;100244.59;;;19.06;72.45
47883;BME280;37739;50.350;7.578;2023-05-08T12:50:20;100242.78;;;18.99;71.12
47883;BME280;37739;50.350;7.578;2023-05-08T12:52:47;100239.22;;;18.89;73.17
47883;BME280;37739;50.350;7.578;2023-05-08T12:55:29;100230.31;;;18.69;74.92
47883;BME280;37739;50.350;7.578;2023-05-08T12:58:12;100240.19;;;18.96;74.00
47883;BME280;37739;50.350;7.578;2023-05-08T13:00:40;100240.59;;;19.42;72.79
47883;BME280;37739;50.350;7.578;2023-05-08T13:03:07;100241.50;;;19.50;69.95
47883;BME280;37739;50.350;7.578;2023-05-08T13:05:40;100241.41;;;19.36;70.99
47883;BME280;37739;50.350;7.578;2023-05-08T13:08:09;100244.81;;;19.31;71.18
47883;BME280;37739;50.350;7.578;2023-05-08T13:10:52;100236.41;;;18.71;71.16
47883;BME280;37739;50.350;7.578;2023-05-08T13:13:19;100238.13;;;18.70;73.80
47883;BME280;37739;50.350;7.578;2023-05-08T13:15:51;100237.59;;;18.99;73.18
47883;BME280;37739;50.350;7.578;2023-05-08T13:18:17;100232.81;;;19.51;71.24
47883;BME280;37739;50.350;7.578;2023-05-08T13:20:43;100231.03;;;19.46;70.88
47883;BME280;37739;50.350;7.578;2023-05-08T13:23:09;100230.97;;;19.38;70.49
47883;BME280;37739;50.350;7.578;2023-05-08T13:25:39;100231.28;;;19.73;70.77
47883;BME280;37739;50.350;7.578;2023-05-08T13:28:06;100232.31;;;20.05;69.45
47883;BME280;37739;50.350;7.578;2023-05-08T13:30:34;100230.59;;;20.05;68.89
47883;BME280;37739;50.350;7.578;2023-05-08T13:33:01;100227.94;;;19.93;68.56
47883;BME280;37739;50.350;7.578;2023-05-08T13:35:28;100225.13;;;19.65;69.55
47883;BME280;37739;50.350;7.578;2023-05-08T13:37:57;100223.47;;;19.72;69.75
47883;BME280;37739;50.350;7.578;2023-05-08T13:40:23;100218.31;;;19.81;69.67
47883;BME280;37739;50.350;7.578;2023-05-08T13:42:49;100221.81;;;19.83;69.37
47883;BME280;37739;50.350;7.578;2023-05-08T13:45:15;100218.31;;;19.84;69.72
47883;BME280;37739;50.350;7.578;2023-05-08T13:47:47;100209.66;;;19.80;69.69
47883;BME280;37739;50.350;7.578;2023-05-08T13:50:14;100201.69;;;19.64;69.91
47883;BME280;37739;50.350;7.578;2023-05-08T13:52:42;100205.91;;;19.49;70.13